Time;durP1;ratioP1;P1;durP2;ratioP2;P2;SDS_P1;SDS_P2;PMS_P1;PMS_P2;Temp;Humidity;BMP_temperature;BMP_pressure;BME280_temperature;BME280_humidity;BME280_pressure;Samples;Min_cycle;Max_cycle;Signal;HPM_P1;HPM_P2
2022/06/20 00:05:23;;;;;;;;;49.00;41.00;;;;;16.73;100.00;100870.47;6220179;22;44812;-91
2022/06/20 00:07:55;;;;;;;;;51.00;43.00;;;;;16.61;100.00;100853.63;6220798;22;44779;-90
2022/06/20 00:10:29;;;;;;;;;53.67;42.00;;;;;16.79;100.00;100877.13;6223978;22;44580;-91
2022/06/20 00:13:03;;;;;;;;;47.00;38.33;;;;;16.80;100.00;100862.72;6224170;22;44943;-91
2022/06/20 00:16:19;;;;;;;;;47.33;40.00;;;;;16.73;100.00;100857.06;6226584;22;46670;-91
2022/06/20 00:23:23;;;;;;;;;48.33;37.67;;;;;16.96;100.00;100898.72;6067159;23;45249;-92
2022/06/20 00:26:22;;;;;;;;;50.00;39.33;;;;;16.79;100.00;100851.13;6042352;23;44737;-92
2022/06/20 00:29:10;;;;;;;;;40.33;34.67;;;;;16.93;100.00;100853.41;6008421;23;45355;-91
2022/06/20 00:31:42;;;;;;;;;49.67;39.00;;;;;16.95;100.00;100840.69;5990325;23;45219;-91
2022/06/20 00:34:13;;;;;;;;;46.67;38.67;;;;;16.83;100.00;100803.41;6020962;23;44713;-89
2022/06/20 00:36:41;;;;;;;;;45.67;39.33;;;;;16.85;100.00;100804.09;6017576;23;44894;-91
2022/06/20 00:39:23;;;;;;;;;43.00;36.33;;;;;16.97;100.00;100827.13;5995236;23;47423;-90
2022/06/20 00:42:36;;;;;;;;;40.67;34.67;;;;;16.93;100.00;100810.47;5966606;23;44707;-90
2022/06/20 00:45:23;;;;;;;;;41.33;36.33;;;;;17.06;100.00;100820.88;5978522;23;44829;-90
2022/06/20 00:58:30;;;;;;;;;47.00;38.67;;;;;17.05;100.00;100819.19;6018383;23;45221;-89
2022/06/20 01:01:29;;;;;;;;;48.00;39.67;;;;;17.00;100.00;100848.31;6090264;23;44859;-89
2022/06/20 01:04:10;;;;;;;;;48.33;39.33;;;;;16.81;100.00;100862.56;6188319;22;45655;-89
2022/06/20 01:06:49;;;;;;;;;52.00;42.00;;;;;16.79;100.00;100883.34;6245442;22;44762;-88
2022/06/20 01:09:27;;;;;;;;;52.67;39.67;;;;;16.83;100.00;100900.00;6245186;22;44727;-88
2022/06/20 01:11:57;;;;;;;;;44.67;38.67;;;;;16.79;100.00;100917.38;6249980;22;44956;-89
2022/06/20 01:14:38;;;;;;;;;45.33;37.67;;;;;16.62;100.00;100886.66;6249984;22;45499;-87
2022/06/20 01:17:14;;;;;;;;;42.33;36.67;;;;;16.65;100.00;100889.91;6252789;22;44924;-86
2022/06/20 01:19:54;;;;;;;;;42.33;35.67;;;;;16.64;100.00;100898.09;6254469;22;45166;-86
2022/06/20 01:22:40;;;;;;;;;43.00;39.00;;;;;16.61;100.00;100887.63;6262704;22;44857;-88
2022/06/20 01:25:42;;;;;;;;;42.00;36.00;;;;;16.61;100.00;100890.31;6263415;22;45234;-89
2022/06/20 01:28:10;;;;;;;;;47.00;37.67;;;;;16.63;100.00;100886.53;6201478;23;44765;-88
2022/06/20 01:30:41;;;;;;;;;42.67;36.00;;;;;16.57;100.00;100870.97;6147076;23;44605;-88
2022/06/20 01:33:07;;;;;;;;;37.33;30.67;;;;;16.52;100.00;100843.72;6193548;23;44738;-88
2022/06/20 01:38:20;;;;;;;;;38.00;34.33;;;;;16.47;100.00;100794.16;6183487;23;45488;-91
2022/06/20 01:43:33;;;;;;;;;42.00;38.00;;;;;16.55;100.00;100787.13;6181092;23;45365;-83
2022/06/20 01:45:59;;;;;;;;;41.33;37.00;;;;;16.42;100.00;100778.50;6182186;23;45301;-88
2022/06/20 01:48:31;;;;;;;;;39.33;34.67;;;;;16.43;100.00;100774.81;6184969;23;45243;-89
2022/06/20 01:50:58;;;;;;;;;39.25;33.25;;;;;16.32;100.00;100745.47;6187845;23;44630;-87
2022/06/20 01:53:31;;;;;;;;;45.67;39.00;;;;;16.40;100.00;100732.22;6167413;23;45581;-88
2022/06/20 01:55:58;;;;;;;;;43.00;35.33;;;;;16.31;100.00;100691.00;6190021;23;45356;-84
2022/06/20 01:58:30;;;;;;;;;41.67;36.67;;;;;16.30;100.00;100662.50;6191170;23;44776;-86
2022/06/20 02:00:57;;;;;;;;;30.33;26.33;;;;;16.28;100.00;100583.19;6186358;22;44756;-90
2022/06/20 02:03:23;;;;;;;;;26.00;21.00;;;;;16.15;100.00;100489.72;6245911;22;45378;-81
2022/06/20 02:05:53;;;;;;;;;31.00;27.67;;;;;16.24;100.00;100485.28;6252907;22;45171;-83
2022/06/20 02:08:21;;;;;;;;;31.33;27.00;;;;;16.15;100.00;100498.59;6244457;22;45309;-85
2022/06/20 02:11:08;;;;;;;;;13.67;13.00;;;;;16.11;100.00;100523.13;6271449;22;45160;-88
2022/06/20 02:13:38;;;;;;;;;37.00;27.50;;;;;16.14;100.00;100544.28;6248664;22;44770;-88
2022/06/20 02:16:10;;;;;;;;;35.33;32.33;;;;;16.18;100.00;100557.25;6277156;22;47231;-92
2022/06/20 02:18:53;;;;;;;;;44.33;36.33;;;;;16.19;100.00;100563.44;6252842;22;44668;-93
2022/06/20 02:21:30;;;;;;;;;41.33;34.67;;;;;16.22;100.00;100579.25;6167290;23;44657;-93
2022/06/20 02:24:04;;;;;;;;;38.00;36.33;;;;;16.21;100.00;100585.63;6155007;23;44959;-93
2022/06/20 02:26:33;;;;;;;;;40.00;33.67;;;;;16.19;100.00;100585.72;6207910;22;45790;-92
2022/06/20 02:29:24;;;;;;;;;35.67;34.33;;;;;16.23;100.00;100609.59;6209797;22;44725;-95
2022/06/20 02:32:28;;;;;;;;;36.67;31.00;;;;;16.28;100.00;100642.16;6184828;23;44757;-93
2022/06/20 02:34:54;;;;;;;;;39.00;30.50;;;;;16.18;100.00;100645.69;6192834;23;44897;-93
2022/06/20 02:37:24;;;;;;;;;44.67;36.67;;;;;16.31;100.00;100666.03;6193997;23;45216;-93
2022/06/20 02:39:58;;;;;;;;;39.67;35.67;;;;;16.19;100.00;100659.94;6169190;23;44730;-92
2022/06/20 02:42:40;;;;;;;;;42.67;36.33;;;;;16.30;100.00;100702.72;6191152;23;44742;-93
2022/06/20 02:45:15;;;;;;;;;46.33;37.00;;;;;16.17;100.00;100694.09;6180323;23;44764;-93
2022/06/20 02:47:51;;;;;;;;;39.67;36.00;;;;;16.32;100.00;100735.59;6142227;23;45176;-93
2022/06/20 02:50:23;;;;;;;;;43.33;34.00;;;;;16.25;100.00;100717.53;6170522;23;44713;-94
2022/06/20 02:53:35;;;;;;;;;44.33;37.00;;;;;16.14;100.00;100722.00;6200877;22;44590;-93
2022/06/20 02:56:02;;;;;;;;;32.00;31.33;;;;;16.14;100.00;100740.78;6170290;23;44875;-91
2022/06/20 02:58:37;;;;;;;;;48.00;37.33;;;;;16.38;100.00;100774.38;6138557;23;46658;-93
2022/06/20 03:01:41;;;;;;;;;44.67;38.00;;;;;16.48;100.00;100759.16;6191995;23;44840;-92
2022/06/20 03:04:13;;;;;;;;;32.67;32.33;;;;;16.49;100.00;100757.31;6183228;22;44738;-93
2022/06/20 03:06:50;;;;;;;;;35.33;32.00;;;;;16.39;100.00;100750.16;6264531;22;44948;-85
2022/06/20 03:09:24;;;;;;;;;39.33;35.33;;;;;16.45;100.00;100765.66;6254736;22;46080;-84
2022/06/20 03:11:50;;;;;;;;;37.00;32.67;;;;;16.59;100.00;100785.88;6255012;22;44769;-86
2022/06/20 03:14:18;;;;;;;;;40.67;35.67;;;;;16.65;100.00;100796.03;6256843;22;44814;-86
2022/06/20 03:16:44;;;;;;;;;49.00;39.00;;;;;16.74;100.00;100806.94;6253100;22;44716;-85
2022/06/20 03:19:27;;;;;;;;;48.67;38.00;;;;;16.71;100.00;100808.03;6245987;22;45600;-86
2022/06/20 03:21:56;;;;;;;;;49.33;41.33;;;;;16.64;100.00;100825.69;6246407;22;45250;-86
2022/06/20 03:24:24;;;;;;;;;44.67;39.33;;;;;16.60;100.00;100816.22;6245997;22;45273;-86
2022/06/20 03:26:51;;;;;;;;;45.00;37.33;;;;;16.68;100.00;100822.56;6245264;22;44823;-85
2022/06/20 03:29:19;;;;;;;;;50.00;40.67;;;;;16.63;100.00;100832.88;6244712;22;45559;-87
2022/06/20 03:31:45;;;;;;;;;38.33;35.33;;;;;16.63;100.00;100813.22;6244362;22;45190;-85
2022/06/20 03:34:12;;;;;;;;;35.67;32.67;;;;;16.59;100.00;100838.66;6245969;22;44616;-85
2022/06/20 03:36:40;;;;;;;;;44.67;34.00;;;;;16.41;100.00;100847.38;6245091;22;45354;-87
2022/06/20 03:39:06;;;;;;;;;41.33;36.00;;;;;16.38;100.00;100846.78;6245957;22;45272;-85
2022/06/20 03:41:33;;;;;;;;;34.67;31.00;;;;;16.44;100.00;100868.56;6248055;22;44805;-86
2022/06/20 03:44:12;;;;;;;;;49.33;39.33;;;;;16.43;100.00;100863.31;6259229;22;44700;-86
2022/06/20 03:46:45;;;;;;;;;43.33;33.67;;;;;16.29;100.00;100855.66;6252788;22;45386;-86
2022/06/20 03:49:22;;;;;;;;;46.00;37.00;;;;;16.27;100.00;100869.19;6273293;22;46566;-86
2022/06/20 03:51:56;;;;;;;;;51.67;40.67;;;;;16.29;100.00;100874.41;6244562;22;45277;-85
2022/06/20 03:54:21;;;;;;;;;46.00;36.00;;;;;16.27;100.00;100876.41;6272160;22;45353;-84
2022/06/20 03:57:11;;;;;;;;;48.67;38.33;;;;;16.32;100.00;100868.78;6245651;22;44776;-85
2022/06/20 03:59:52;;;;;;;;;44.00;36.00;;;;;16.30;100.00;100868.94;6246985;22;45437;-84
2022/06/20 04:02:23;;;;;;;;;40.67;35.33;;;;;16.27;100.00;100873.72;6246783;22;45357;-83
2022/06/20 04:04:53;;;;;;;;;42.00;35.33;;;;;16.30;100.00;100881.50;6250469;22;44782;-84
2022/06/20 04:07:26;;;;;;;;;22.00;22.00;;;;;16.36;100.00;100889.84;6254320;22;44893;-84
2022/06/20 04:13:08;;;;;;;;;39.33;33.00;;;;;16.21;100.00;100909.13;6269820;22;44648;-92
2022/06/20 04:15:34;;;;;;;;;39.00;35.00;;;;;16.11;100.00;100909.06;6245688;22;44686;-90
2022/06/20 04:18:29;;;;;;;;;30.67;28.33;;;;;16.02;100.00;100901.84;6269154;22;45386;-84
2022/06/20 04:21:15;;;;;;;;;29.33;27.67;;;;;15.99;100.00;100899.41;6253082;22;45221;-83
2022/06/20 04:24:13;;;;;;;;;34.67;29.33;;;;;16.01;100.00;100908.19;6245622;22;44716;-86
2022/06/20 04:27:00;;;;;;;;;40.67;37.33;;;;;15.98;100.00;100913.81;6247549;22;44718;-84
2022/06/20 04:29:40;;;;;;;;;45.00;34.00;;;;;15.96;100.00;100913.94;6246552;22;44696;-85
2022/06/20 04:32:27;;;;;;;;;44.00;35.67;;;;;15.92;100.00;100925.91;6246778;22;45222;-85
2022/06/20 04:34:59;;;;;;;;;44.00;36.67;;;;;15.83;100.00;100916.81;6246104;22;45254;-85
2022/06/20 04:37:40;;;;;;;;;49.33;40.33;;;;;15.74;100.00;100914.94;6247791;22;45420;-90
2022/06/20 04:40:25;;;;;;;;;45.67;38.67;;;;;15.69;100.00;100927.88;6264390;22;44887;-90
2022/06/20 04:42:57;;;;;;;;;49.00;41.00;;;;;15.71;100.00;100938.44;6254078;22;46488;-90
2022/06/20 04:45:42;;;;;;;;;48.67;34.67;;;;;15.70;100.00;100942.97;6255100;22;44567;-91
2022/06/20 04:48:12;;;;;;;;;46.00;38.00;;;;;15.62;100.00;100942.75;6255056;22;44580;-92
2022/06/20 04:50:45;;;;;;;;;33.67;33.33;;;;;15.69;100.00;100949.28;6260608;22;45491;-91
2022/06/20 04:53:19;;;;;;;;;52.33;41.67;;;;;15.64;100.00;100952.38;6270333;22;45233;-92
2022/06/20 04:55:48;;;;;;;;;49.33;37.67;;;;;15.62;100.00;100935.56;6269464;22;44568;-88
2022/06/20 04:58:34;;;;;;;;;42.00;36.67;;;;;15.80;100.00;100967.97;6294150;22;44749;-90
2022/06/20 05:01:01;;;;;;;;;47.00;38.00;;;;;15.77;100.00;100965.56;6265104;22;44709;-92
2022/06/20 05:03:34;;;;;;;;;40.00;36.00;;;;;15.75;100.00;100975.56;6271660;22;45346;-90
2022/06/20 05:06:01;;;;;;;;;36.00;32.00;;;;;15.78;100.00;100987.84;6272887;22;44646;-89
2022/06/20 05:08:38;;;;;;;;;38.33;34.67;;;;;15.75;100.00;100977.38;6268589;22;44616;-89
2022/06/20 05:11:17;;;;;;;;;37.33;33.67;;;;;15.73;100.00;100972.16;6242464;22;44797;-91
2022/06/20 05:13:54;;;;;;;;;43.00;36.33;;;;;15.81;100.00;100974.19;6272546;22;44951;-90
2022/06/20 05:16:27;;;;;;;;;43.67;37.00;;;;;15.80;100.00;100973.34;6273190;22;44700;-91
2022/06/20 05:18:59;;;;;;;;;36.33;33.33;;;;;15.79;100.00;100960.06;6271958;22;44661;-90
2022/06/20 05:21:29;;;;;;;;;46.67;39.00;;;;;15.82;100.00;100992.81;6271891;22;44911;-90
2022/06/20 05:26:35;;;;;;;;;41.00;36.67;;;;;15.87;100.00;100979.03;6299754;22;44761;-89
2022/06/20 05:29:09;;;;;;;;;40.33;32.67;;;;;15.90;100.00;100979.59;6300515;22;44592;-89
2022/06/20 05:31:44;;;;;;;;;39.33;35.00;;;;;15.98;100.00;100978.09;6295908;22;44752;-90
2022/06/20 05:35:05;;;;;;;;;32.00;28.33;;;;;15.94;100.00;100980.19;6291024;22;45553;-91
2022/06/20 05:38:03;;;;;;;;;40.33;35.33;;;;;15.98;100.00;100984.31;6292746;22;44567;-90
2022/06/20 05:40:36;;;;;;;;;39.00;36.67;;;;;15.98;100.00;100987.00;6164696;23;44723;-91
2022/06/20 05:43:01;;;;;;;;;39.67;36.33;;;;;16.03;100.00;100998.16;6160388;23;45302;-91
2022/06/20 05:45:30;;;;;;;;;49.67;39.67;;;;;16.07;100.00;101004.97;6156956;23;45399;-91
2022/06/20 05:48:00;;;;;;;;;34.33;33.00;;;;;16.14;100.00;101024.03;6160754;23;45326;-89
2022/06/20 05:50:29;;;;;;;;;37.33;32.33;;;;;16.15;100.00;101023.09;6164013;23;44690;-90
2022/06/20 05:52:56;;;;;;;;;40.00;36.33;;;;;16.07;100.00;101007.66;6159386;23;45278;-91
2022/06/20 05:55:41;;;;;;;;;44.67;35.33;;;;;16.13;100.00;101023.19;6159088;23;47276;-91
2022/06/20 05:58:09;;;;;;;;;25.75;18.25;;;;;16.15;100.00;101017.72;6159965;23;44662;-91
2022/06/20 06:00:36;;;;;;;;;34.00;33.00;;;;;16.08;100.00;101022.75;6143130;23;44744;-91
2022/06/20 06:03:18;;;;;;;;;36.67;32.33;;;;;16.14;100.00;101030.25;6255183;22;44856;-92
2022/06/20 06:06:11;;;;;;;;;41.00;34.67;;;;;16.20;100.00;101036.94;6284165;22;45566;-88
2022/06/20 06:09:25;;;;;;;;;30.33;23.00;;;;;16.14;100.00;101024.88;6242844;22;45027;-91
2022/06/20 06:12:26;;;;;;;;;26.00;24.50;;;;;16.15;100.00;101034.66;6242251;22;44763;-91
2022/06/20 06:15:03;;;;;;;;;16.25;15.75;;;;;16.13;100.00;101047.31;6263727;22;44766;-91
2022/06/20 06:17:45;;;;;;;;;22.50;18.50;;;;;16.05;100.00;101046.28;6254121;22;45107;-92
2022/06/20 06:20:17;;;;;;;;;34.67;31.67;;;;;16.04;100.00;101040.06;6235747;22;46011;-86
2022/06/20 06:22:45;;;;;;;;;38.33;33.67;;;;;16.04;100.00;101045.41;6252919;22;44785;-87
2022/06/20 06:25:23;;;;;;;;;38.33;34.67;;;;;15.98;100.00;101051.31;6255318;22;45490;-87
2022/06/20 06:27:52;;;;;;;;;28.25;27.75;;;;;16.00;100.00;101049.34;6275692;22;45689;-85
2022/06/20 06:30:27;;;;;;;;;29.33;22.67;;;;;15.99;100.00;101062.88;6276951;22;44705;-87
2022/06/20 06:32:59;;;;;;;;;35.00;32.67;;;;;15.92;100.00;101038.44;6278528;22;45302;-84
2022/06/20 06:35:39;;;;;;;;;29.00;26.33;;;;;15.85;100.00;101069.41;6278496;22;44774;-83
2022/06/20 06:38:12;;;;;;;;;35.33;33.00;;;;;15.90;100.00;101064.50;6278393;22;45411;-83
2022/06/20 06:40:48;;;;;;;;;26.50;24.75;;;;;16.01;100.00;101071.66;6259476;22;44710;-86
2022/06/20 06:43:40;;;;;;;;;19.00;16.00;;;;;16.04;100.00;101080.25;6283001;22;44817;-84
2022/06/20 06:46:38;;;;;;;;;30.00;26.00;;;;;16.07;100.00;101060.41;6248378;22;45297;-84
2022/06/20 06:49:34;;;;;;;;;39.00;33.33;;;;;16.01;100.00;101082.38;6277597;22;45334;-85
2022/06/20 06:52:23;;;;;;;;;35.00;31.67;;;;;16.15;100.00;101090.09;6284649;22;45195;-84
2022/06/20 06:54:57;;;;;;;;;30.33;30.33;;;;;16.12;100.00;101082.31;6283960;22;44904;-85
2022/06/20 06:57:39;;;;;;;;;28.67;28.00;;;;;16.06;100.00;101098.91;6280242;22;44826;-83
2022/06/20 07:00:04;;;;;;;;;26.50;23.75;;;;;16.11;100.00;101102.91;6276049;22;44977;-84
2022/06/20 07:02:38;;;;;;;;;24.25;23.25;;;;;16.06;100.00;101110.47;6277049;22;45338;-85
2022/06/20 07:05:14;;;;;;;;;22.25;19.00;;;;;16.06;100.00;101106.97;6255907;22;44772;-85
2022/06/20 07:07:48;;;;;;;;;19.50;15.25;;;;;16.13;100.00;101111.66;6280850;22;44793;-85
2022/06/20 07:10:42;;;;;;;;;27.75;27.25;;;;;16.11;100.00;101116.31;6279792;22;45230;-85
2022/06/20 07:13:27;;;;;;;;;14.25;12.75;;;;;16.18;100.00;101119.31;6281554;22;44828;-86
2022/06/20 07:15:57;;;;;;;;;19.00;16.75;;;;;16.02;100.00;101100.16;6255153;22;44697;-85
2022/06/20 07:18:49;;;;;;;;;25.50;23.50;;;;;16.16;100.00;101116.75;6289013;22;44809;-87
2022/06/20 07:21:18;;;;;;;;;24.75;22.75;;;;;16.09;100.00;101109.34;6288554;22;45018;-85
2022/06/20 07:23:48;;;;;;;;;26.50;22.00;;;;;16.14;100.00;101121.38;6287883;22;44761;-88
2022/06/20 07:26:18;;;;;;;;;22.50;22.50;;;;;16.09;100.00;101120.09;6258041;22;44820;-87
2022/06/20 07:28:55;;;;;;;;;28.25;19.50;;;;;16.17;100.00;101136.38;6263581;22;44825;-87
2022/06/20 07:31:26;;;;;;;;;25.75;22.25;;;;;16.09;100.00;101126.28;6292999;22;45129;-86
2022/06/20 07:34:01;;;;;;;;;26.50;25.25;;;;;16.04;100.00;101120.47;6260315;22;45165;-87
2022/06/20 07:36:38;;;;;;;;;21.50;17.50;;;;;16.04;100.00;101122.28;6285395;22;44666;-87
2022/06/20 07:39:10;;;;;;;;;27.50;25.25;;;;;15.96;100.00;101136.34;6286946;22;44768;-86
2022/06/20 07:41:45;;;;;;;;;29.00;26.00;;;;;15.98;100.00;101139.75;6296042;22;44994;-89
2022/06/20 07:44:33;;;;;;;;;29.75;26.50;;;;;15.97;100.00;101139.88;6299422;22;44615;-90
2022/06/20 07:47:08;;;;;;;;;25.00;23.00;;;;;16.08;100.00;101151.41;6297764;22;44685;-89
2022/06/20 07:49:49;;;;;;;;;26.75;24.00;;;;;16.00;100.00;101135.09;6299564;22;44739;-90
2022/06/20 07:52:41;;;;;;;;;25.50;21.25;;;;;15.93;100.00;101148.16;6265113;22;46505;-89
2022/06/20 07:55:27;;;;;;;;;22.25;18.50;;;;;15.64;100.00;101139.00;6286346;22;44893;-91
2022/06/20 07:58:17;;;;;;;;;26.25;24.75;;;;;15.74;100.00;101161.38;6247060;22;46336;-84
2022/06/20 08:00:50;;;;;;;;;24.25;21.00;;;;;15.78;100.00;101159.31;6276910;22;45598;-85
2022/06/20 08:03:38;;;;;;;;;33.00;29.50;;;;;15.76;100.00;101154.09;6278373;22;45337;-82
2022/06/20 08:06:30;;;;;;;;;24.50;23.75;;;;;15.81;100.00;101156.34;6281109;22;44643;-85
2022/06/20 08:09:01;;;;;;;;;25.50;23.25;;;;;15.70;100.00;101151.03;6286287;22;44721;-84
2022/06/20 08:11:41;;;;;;;;;37.33;33.00;;;;;15.89;100.00;101169.97;6285369;22;44729;-84
2022/06/20 08:14:28;;;;;;;;;46.67;40.67;;;;;15.85;100.00;101158.66;6252246;22;46856;-84
2022/06/20 08:16:59;;;;;;;;;33.50;28.50;;;;;15.84;100.00;101151.59;6279096;22;44674;-86
2022/06/20 08:19:24;;;;;;;;;20.25;17.25;;;;;15.82;100.00;101148.22;6251827;22;45441;-84
2022/06/20 08:21:57;;;;;;;;;42.67;34.33;;;;;15.92;100.00;101167.91;6279171;22;44796;-86
2022/06/20 08:24:40;;;;;;;;;35.25;29.50;;;;;15.99;100.00;101145.94;6278910;22;45211;-85
2022/06/20 08:27:09;;;;;;;;;31.50;28.00;;;;;16.07;100.00;101164.94;6279424;22;45073;-85
2022/06/20 08:29:43;;;;;;;;;33.67;30.67;;;;;16.05;100.00;101140.06;6252085;22;44795;-86
2022/06/20 08:32:27;;;;;;;;;24.25;23.00;;;;;16.11;100.00;101140.44;6253626;22;44865;-86
2022/06/20 08:35:15;;;;;;;;;23.00;23.00;;;;;16.33;100.00;101128.72;6278712;22;45504;-85
2022/06/20 08:37:49;;;;;;;;;11.00;11.00;;;;;16.28;100.00;101141.69;6283158;22;44720;-89
2022/06/20 08:40:23;;;;;;;;;29.00;23.50;;;;;16.48;100.00;101139.13;6299250;22;44700;-89
2022/06/20 08:43:27;;;;;;;;;29.50;26.00;;;;;16.56;100.00;101148.22;6299174;22;44675;-88
2022/06/20 08:48:44;;;;;;;;;29.25;28.25;;;;;16.62;100.00;101157.59;6276245;22;44726;-84
2022/06/20 08:51:40;;;;;;;;;29.25;24.50;;;;;16.53;100.00;101155.69;6284523;22;45376;-85
2022/06/20 08:54:24;;;;;;;;;23.75;23.75;;;;;16.54;100.00;101160.09;6282899;22;45323;-85
2022/06/20 08:57:15;;;;;;;;;19.00;18.00;;;;;16.70;100.00;101158.63;6252359;22;46189;-84
2022/06/20 09:00:14;;;;;;;;;26.25;25.50;;;;;16.66;100.00;101170.59;6253089;22;45170;-84
2022/06/20 09:02:58;;;;;;;;;32.50;27.75;;;;;16.46;100.00;101171.47;6280260;22;45307;-86
2022/06/20 09:05:47;;;;;;;;;24.33;19.67;;;;;16.47;100.00;101189.25;6253011;22;44825;-85
2022/06/20 09:08:36;;;;;;;;;21.00;17.50;;;;;16.43;100.00;101201.19;6294427;22;45237;-85
2022/06/20 09:11:29;;;;;;;;;32.33;32.33;;;;;16.45;100.00;101185.84;6251064;22;45089;-86
2022/06/20 09:14:03;;;;;;;;;32.33;27.67;;;;;16.40;100.00;101196.13;6280045;22;45360;-86
2022/06/20 09:16:50;;;;;;;;;27.33;25.00;;;;;16.34;100.00;101185.88;6251119;22;45208;-86
2022/06/20 09:19:35;;;;;;;;;33.33;30.00;;;;;16.37;100.00;101191.00;6280790;22;45191;-87
2022/06/20 09:22:10;;;;;;;;;31.67;28.00;;;;;16.30;100.00;101197.88;6271372;22;44824;-84
2022/06/20 09:25:07;;;;;;;;;34.33;32.67;;;;;16.32;100.00;101206.63;6289260;22;45321;-88
2022/06/20 09:27:46;;;;;;;;;24.75;21.25;;;;;16.26;100.00;101177.66;6262278;22;44962;-87
2022/06/20 09:30:28;;;;;;;;;25.67;22.33;;;;;16.38;100.00;101206.09;6296362;22;45292;-90
2022/06/20 09:33:16;;;;;;;;;25.50;23.50;;;;;16.46;100.00;101211.69;6275960;22;44549;-90
2022/06/20 09:35:51;;;;;;;;;25.50;21.75;;;;;16.59;100.00;101206.16;6270690;22;44710;-87
2022/06/20 09:38:18;;;;;;;;;35.75;32.25;;;;;16.60;100.00;101219.41;6273650;22;44835;-88
2022/06/20 09:40:59;;;;;;;;;46.33;37.00;;;;;16.63;100.00;101211.13;6299554;22;45033;-90
2022/06/20 09:43:53;;;;;;;;;30.00;26.25;;;;;16.82;100.00;101231.88;6274641;22;44658;-90
2022/06/20 09:46:32;;;;;;;;;32.33;29.67;;;;;16.93;100.00;101215.72;6272042;22;44896;-89
2022/06/20 09:52:03;;;;;;;;;35.25;30.75;;;;;17.18;100.00;101205.53;6278021;22;45115;-90
2022/06/20 09:57:23;;;;;;;;;28.00;24.50;;;;;17.59;100.00;101215.31;6271044;22;45052;-87
2022/06/20 09:59:58;;;;;;;;;30.50;26.00;;;;;17.71;100.00;101202.63;6255208;22;44975;-86
2022/06/20 10:03:03;;;;;;;;;35.00;28.50;;;;;17.72;100.00;101213.25;6299148;22;44923;-84
2022/06/20 10:05:36;;;;;;;;;36.25;30.25;;;;;17.97;100.00;101219.13;6292277;22;44813;-88
2022/06/20 10:08:34;;;;;;;;;28.25;26.50;;;;;18.16;100.00;101215.63;6270738;22;44672;-86
2022/06/20 10:11:09;;;;;;;;;35.75;31.75;;;;;18.08;100.00;101213.59;6299530;22;44636;-87
2022/06/20 10:13:52;;;;;;;;;31.50;30.00;;;;;18.02;100.00;101218.72;6294912;22;45265;-85
2022/06/20 10:16:38;;;;;;;;;32.25;25.75;;;;;18.03;100.00;101215.03;6284176;22;44951;-90
2022/06/20 10:19:19;;;;;;;;;35.25;33.75;;;;;18.24;100.00;101200.47;6293073;22;44631;-87
2022/06/20 10:22:11;;;;;;;;;33.50;27.50;;;;;18.54;100.00;101192.41;6285437;22;44781;-87
2022/06/20 10:24:54;;;;;;;;;33.50;29.00;;;;;18.65;100.00;101197.63;6236627;22;46593;-89
2022/06/20 10:27:31;;;;;;;;;34.25;31.25;;;;;18.89;100.00;101198.03;6284941;22;45246;-87
2022/06/20 10:30:12;;;;;;;;;32.00;32.00;;;;;18.94;100.00;101201.13;6282757;22;44724;-87
2022/06/20 10:32:52;;;;;;;;;23.00;21.50;;;;;19.12;100.00;101187.75;6283073;22;44681;-88
2022/06/20 10:35:51;;;;;;;;;34.00;28.50;;;;;19.19;100.00;101205.03;6283333;22;45128;-90
2022/06/20 10:38:35;;;;;;;;;25.00;22.50;;;;;19.22;100.00;101196.66;6289423;22;44569;-89
2022/06/20 10:41:10;;;;;;;;;27.50;26.00;;;;;19.42;100.00;101204.66;6258785;22;44705;-89
2022/06/20 10:43:57;;;;;;;;;25.00;22.00;;;;;19.56;100.00;101214.94;6258393;22;44850;-88
2022/06/20 10:46:32;;;;;;;;;24.00;23.00;;;;;19.51;100.00;101198.38;6259097;22;46928;-89
2022/06/20 10:49:11;;;;;;;;;26.75;25.50;;;;;19.87;100.00;101223.63;6290953;22;44654;-87
2022/06/20 10:51:54;;;;;;;;;29.00;26.75;;;;;19.82;100.00;101223.19;6263534;22;44701;-87
2022/06/20 11:01:35;;;;;;;;;28.40;24.00;;;;;20.36;100.00;101215.19;6279791;22;44804;-87
2022/06/20 11:04:03;;;;;;;;;27.00;22.50;;;;;20.30;100.00;101203.13;6256597;22;44604;-87
2022/06/20 11:06:47;;;;;;;;;23.25;20.50;;;;;20.26;100.00;101221.50;6253390;22;44893;-88
2022/06/20 11:09:25;;;;;;;;;23.25;22.25;;;;;20.31;100.00;101222.88;6252125;22;45066;-89
2022/06/20 11:12:29;;;;;;;;;23.40;21.40;;;;;20.25;100.00;101227.88;6252042;22;44733;-88
2022/06/20 11:15:33;;;;;;;;;24.00;22.75;;;;;20.40;100.00;101225.50;6224513;22;44718;-89
2022/06/20 11:18:16;;;;;;;;;18.25;16.25;;;;;20.74;100.00;101214.00;6250533;22;44817;-90
2022/06/20 11:21:00;;;;;;;;;26.25;23.25;;;;;20.82;100.00;101222.16;6226883;22;45261;-87
2022/06/20 11:23:44;;;;;;;;;31.25;29.50;;;;;21.00;100.00;101219.44;6258594;22;44633;-88
2022/06/20 11:26:23;;;;;;;;;76.67;56.33;;;;;21.30;100.00;101224.38;6262094;22;44633;-87
2022/06/20 11:29:20;;;;;;;;;23.25;18.25;;;;;21.41;100.00;101227.81;6258638;22;44833;-89
2022/06/20 11:32:10;;;;;;;;;23.25;23.25;;;;;21.29;100.00;101228.06;6194502;23;45103;-88
2022/06/20 11:35:08;;;;;;;;;21.50;21.50;;;;;21.01;100.00;101196.81;6189467;23;44673;-88
2022/06/20 11:37:54;;;;;;;;;23.00;21.25;;;;;21.09;100.00;101204.13;6157477;23;45023;-89
2022/06/20 11:40:51;;;;;;;;;32.25;27.50;;;;;21.25;100.00;101223.13;6187064;23;44782;-88
2022/06/20 11:43:44;;;;;;;;;25.00;23.00;;;;;21.57;100.00;101235.16;6187459;23;45271;-88
2022/06/20 11:46:24;;;;;;;;;23.40;20.00;;;;;21.95;100.00;101223.81;6190130;23;44802;-87
2022/06/20 11:49:18;;;;;;;;;20.80;18.40;;;;;22.22;100.00;101184.81;6187932;23;44641;-87
2022/06/20 11:51:56;;;;;;;;;36.25;29.25;;;;;22.69;100.00;101203.09;6187123;23;44859;-86
2022/06/20 11:54:42;;;;;;;;;22.60;19.40;;;;;22.63;100.00;101208.31;6188322;23;45470;-87
2022/06/20 11:57:30;;;;;;;;;22.60;19.00;;;;;23.02;100.00;101206.66;6186030;23;44802;-87
2022/06/20 12:00:25;;;;;;;;;19.60;19.60;;;;;23.42;100.00;101198.56;6194176;23;44749;-88
2022/06/20 12:03:28;;;;;;;;;33.50;26.25;;;;;23.41;100.00;101197.72;6215733;22;44886;-88
2022/06/20 12:06:27;;;;;;;;;20.50;20.00;;;;;23.49;100.00;101191.41;6190044;22;45386;-87
2022/06/20 12:09:10;;;;;;;;;21.40;21.00;;;;;23.78;100.00;101188.91;6238086;22;45117;-89
2022/06/20 12:11:35;;;;;;;;;19.60;19.60;;;;;23.87;100.00;101194.31;6255403;22;44690;-87
2022/06/20 12:14:13;;;;;;;;;21.50;16.75;;;;;23.50;100.00;101174.13;6264267;22;44843;-88
2022/06/20 12:17:23;;;;;;;;;16.80;15.80;;;;;23.59;100.00;101181.19;6263541;22;45343;-86
2022/06/20 12:23:21;;;;;;;;;19.40;19.00;;;;;24.01;100.00;101185.41;6176456;23;44725;-87
2022/06/20 12:26:09;;;;;;;;;21.75;19.00;;;;;23.97;100.00;101170.50;6168494;23;44601;-88
2022/06/20 12:28:38;;;;;;;;;19.00;19.00;;;;;23.64;100.00;101167.97;6158572;23;45301;-89
2022/06/20 12:31:16;;;;;;;;;17.80;17.80;;;;;23.84;100.00;101169.22;6159145;23;44744;-89
2022/06/20 12:33:49;;;;;;;;;17.60;16.60;;;;;23.77;100.00;101176.38;6158928;23;44666;-87
2022/06/20 12:36:26;;;;;;;;;21.60;18.20;;;;;23.60;100.00;101155.78;6155477;23;44707;-86
2022/06/20 12:39:26;;;;;;;;;12.40;11.40;;;;;23.63;100.00;101168.13;6155706;23;45249;-87
2022/06/20 12:41:57;;;;;;;;;16.40;13.80;;;;;23.43;100.00;101171.25;6116751;23;44855;-88
2022/06/20 12:44:56;;;;;;;;;19.00;17.40;;;;;23.37;100.00;101157.56;6155350;23;44774;-86
2022/06/20 12:47:46;;;;;;;;;14.00;12.40;;;;;23.20;100.00;101157.63;6116605;23;45308;-87